createdAt,value
2023-01-19T00:02:01.268Z,22.4
2023-01-19T00:07:02.107Z,21.6
2023-01-19T00:12:01.726Z,21.2
2023-01-19T00:17:02.267Z,21.9
2023-01-19T00:22:01.274Z,21.4
2023-01-19T00:27:02.095Z,21.8
2023-01-19T00:32:01.277Z,22.6
2023-01-19T00:37:01.343Z,20.4
2023-01-19T00:42:01.747Z,20.4
2023-01-19T00:47:01.356Z,20.8
2023-01-19T00:52:01.754Z,20.1
2023-01-19T00:57:01.342Z,19.5
2023-01-19T01:02:02.096Z,21.2
2023-01-19T01:07:02.324Z,21.0
2023-01-19T01:12:01.279Z,20.2
2023-01-19T01:17:01.329Z,20.3
2023-01-19T01:22:01.273Z,20.4
2023-01-19T01:27:01.434Z,20.8
2023-01-19T01:32:01.301Z,21.0
2023-01-19T01:37:02.040Z,21.3
2023-01-19T01:42:01.270Z,21.0
2023-01-19T01:47:01.366Z,19.7
2023-01-19T01:52:01.878Z,19.0
2023-01-19T01:57:01.335Z,17.3
2023-01-19T02:02:02.344Z,16.4
2023-01-19T02:07:01.367Z,15.8
2023-01-19T02:13:04.018Z,16.8
2023-01-19T02:18:02.311Z,16.5
2023-01-19T02:23:06.977Z,16.8
2023-01-19T02:28:01.400Z,16.2
2023-01-19T02:33:02.982Z,15.6
2023-01-19T02:38:02.951Z,14.1
2023-01-19T02:43:03.306Z,13.8
2023-01-19T02:48:01.267Z,13.6
2023-01-19T02:53:02.827Z,13.8
2023-01-19T02:58:09.553Z,14.2
2023-01-19T03:03:03.009Z,15.9
2023-01-19T03:08:06.374Z,15.9
2023-01-19T03:13:02.749Z,14.0
2023-01-19T03:18:01.380Z,13.5
2023-01-19T03:23:02.972Z,12.3
2023-01-19T03:28:01.408Z,11.7
2023-01-19T03:33:02.905Z,11.7
2023-01-19T03:38:04.644Z,13.2
2023-01-19T03:43:03.081Z,13.4
2023-01-19T03:48:01.328Z,13.9
2023-01-19T03:53:02.741Z,12.8
2023-01-19T03:58:01.375Z,12.2
2023-01-19T04:03:03.190Z,12.5
2023-01-19T04:08:01.363Z,11.8
2023-01-19T04:13:02.933Z,12.1
2023-01-19T04:18:01.807Z,11.8
2023-01-19T04:23:03.206Z,11.3
2023-01-19T04:28:01.839Z,11.0
2023-01-19T04:33:02.820Z,10.1
2023-01-19T04:38:01.585Z,9.2
2023-01-19T04:43:03.327Z,9.0
2023-01-19T04:48:01.331Z,9.1
2023-01-19T04:53:02.863Z,8.3
2023-01-19T04:58:01.490Z,8.9
2023-01-19T05:03:02.902Z,8.9
2023-01-19T05:08:01.401Z,8.9
2023-01-19T05:13:02.771Z,8.0
2023-01-19T05:18:01.462Z,7.8
2023-01-19T05:23:02.854Z,7.3
2023-01-19T05:28:01.758Z,7.2
2023-01-19T05:33:02.865Z,7.1
2023-01-19T05:38:01.479Z,7.8
2023-01-19T05:48:01.381Z,7.8
2023-01-19T05:53:02.778Z,7.7
2023-01-19T05:58:01.377Z,8.5
2023-01-19T06:03:05.351Z,8.5
2023-01-19T06:08:01.272Z,9.3
2023-01-19T06:13:02.753Z,9.5
2023-01-19T06:18:01.363Z,9.7
2023-01-19T06:23:02.753Z,8.4
2023-01-19T06:28:01.281Z,8.0
2023-01-19T06:34:01.474Z,7.4
2023-01-19T06:39:01.319Z,7.8
2023-01-19T06:44:01.379Z,7.3
2023-01-19T06:49:02.424Z,8.4
2023-01-19T06:59:01.577Z,9.5
2023-01-19T07:04:01.269Z,9.7
2023-01-19T07:09:01.447Z,10.3
2023-01-19T07:14:01.342Z,8.7
2023-01-19T07:19:01.480Z,8.1
2023-01-19T07:24:01.409Z,7.8
2023-01-19T07:29:01.768Z,7.3
2023-01-19T07:34:01.272Z,8.3
2023-01-19T07:39:01.663Z,11.2
2023-01-19T07:44:01.315Z,16.2
2023-01-19T07:49:01.416Z,21.4
2023-01-19T07:54:01.884Z,24.9
2023-01-19T07:59:01.438Z,27.5
2023-01-19T08:04:01.283Z,28.0
2023-01-19T08:09:01.865Z,25.0
2023-01-19T08:14:01.356Z,20.7
2023-01-19T08:19:02.315Z,18.1
2023-01-19T08:24:01.605Z,16.1
2023-01-19T08:29:01.275Z,15.3
2023-01-19T08:34:01.309Z,16.2
2023-01-19T08:39:01.434Z,17.7
2023-01-19T08:44:01.285Z,18.6
2023-01-19T08:50:02.516Z,19.8
2023-01-19T08:55:01.428Z,21.5
2023-01-19T09:00:03.199Z,21.6
2023-01-19T09:05:02.191Z,19.2
2023-01-19T09:10:01.294Z,20.9
2023-01-19T09:15:02.243Z,21.6
2023-01-19T09:20:01.341Z,21.0
2023-01-19T09:25:01.280Z,19.9
2023-01-19T09:30:02.608Z,21.3
2023-01-19T09:35:01.596Z,19.3
2023-01-19T09:40:01.517Z,17.5
2023-01-19T09:45:05.177Z,16.5
2023-01-19T09:50:09.535Z,15.9
2023-01-19T09:55:01.275Z,14.5
2023-01-19T10:00:02.510Z,13.5
2023-01-19T10:05:03.397Z,12.8
2023-01-19T10:10:01.450Z,12.2
2023-01-19T10:15:01.300Z,12.4
2023-01-19T10:20:01.328Z,13.2
2023-01-19T10:25:03.321Z,12.9
2023-01-19T10:30:06.707Z,12.4
2023-01-19T10:35:01.482Z,11.8
2023-01-19T10:40:01.454Z,11.8
2023-01-19T10:45:02.796Z,11.4
2023-01-19T10:56:01.793Z,11.2
2023-01-19T11:01:01.946Z,11.2
2023-01-19T11:06:01.282Z,10.0
2023-01-19T11:11:01.369Z,9.4
2023-01-19T11:21:01.597Z,9.0
2023-01-19T11:26:01.386Z,9.1
2023-01-19T11:31:01.708Z,9.6
2023-01-19T11:36:14.395Z,10.0
2023-01-19T11:41:01.474Z,9.8
2023-01-19T11:46:01.644Z,9.7
2023-01-19T11:51:01.301Z,9.6
2023-01-19T11:56:01.480Z,9.9
2023-01-19T12:11:01.300Z,10.1
2023-01-19T12:16:01.554Z,10.4
2023-01-19T12:21:04.694Z,10.3
2023-01-19T12:26:01.315Z,11.0
2023-01-19T12:31:01.703Z,11.6
2023-01-19T12:36:01.684Z,12.1
2023-01-19T12:41:01.430Z,12.3
2023-01-19T12:46:01.390Z,12.1
2023-01-19T12:51:01.323Z,11.8
2023-01-19T12:56:01.733Z,12.0
2023-01-19T13:01:01.693Z,11.3
2023-01-19T13:06:03.256Z,12.0
2023-01-19T13:11:01.268Z,12.3
2023-01-19T13:16:01.782Z,12.5
2023-01-19T13:21:01.277Z,12.8
2023-01-19T13:26:01.271Z,13.7
2023-01-19T13:31:01.659Z,13.6
2023-01-19T13:36:01.572Z,13.1
2023-01-19T13:41:01.289Z,13.0
2023-01-19T13:46:01.450Z,12.6
2023-01-19T13:51:01.290Z,11.9
2023-01-19T13:56:01.549Z,11.8
2023-01-19T14:01:01.591Z,11.8
2023-01-19T14:06:02.358Z,11.8
2023-01-19T14:11:01.405Z,12.5
2023-01-19T14:16:01.713Z,13.2
2023-01-19T14:21:01.354Z,13.5
2023-01-19T14:26:01.283Z,14.8
2023-01-19T14:31:01.998Z,15.4
2023-01-19T14:36:01.440Z,15.4
2023-01-19T14:42:01.450Z,15.3
2023-01-19T14:47:01.334Z,15.3
2023-01-19T14:52:01.489Z,15.0
2023-01-19T14:57:01.461Z,15.6
2023-01-19T15:02:01.754Z,16.3
2023-01-19T15:07:01.368Z,17.1
2023-01-19T15:12:01.871Z,18.1
2023-01-19T15:17:01.279Z,18.4
2023-01-19T15:22:01.330Z,17.8
2023-01-19T15:27:01.266Z,17.7
2023-01-19T15:32:01.534Z,15.5
2023-01-19T15:37:01.268Z,13.9
2023-01-19T15:42:01.284Z,13.7
2023-01-19T15:47:01.693Z,13.2
2023-01-19T15:52:01.554Z,11.4
2023-01-19T15:57:01.345Z,12.6
2023-01-19T16:02:01.955Z,12.9
2023-01-19T16:07:01.349Z,12.3
2023-01-19T16:12:06.862Z,12.1
2023-01-19T16:17:01.673Z,13.6
2023-01-19T16:22:01.683Z,14.4
2023-01-19T16:27:01.272Z,14.3
2023-01-19T16:32:01.780Z,14.9
2023-01-19T16:37:01.301Z,14.8
2023-01-19T16:42:01.269Z,14.4
2023-01-19T16:47:01.375Z,14.0
2023-01-19T16:52:01.440Z,14.6
2023-01-19T16:57:01.394Z,15.4
2023-01-19T17:02:01.852Z,15.5
2023-01-19T17:07:01.375Z,15.4
2023-01-19T17:12:01.429Z,14.9
2023-01-19T17:17:01.741Z,14.3
2023-01-19T17:22:01.282Z,13.3
2023-01-19T17:27:01.750Z,15.0
2023-01-19T17:32:02.159Z,15.7
2023-01-19T17:37:01.309Z,15.9
2023-01-19T17:42:01.291Z,15.9
2023-01-19T17:47:01.273Z,17.4
2023-01-19T17:52:01.453Z,16.8
2023-01-19T17:57:01.408Z,17.0
2023-01-19T18:02:01.597Z,17.9
2023-01-19T18:07:01.385Z,19.0
2023-01-19T18:17:01.419Z,18.5
2023-01-19T18:22:01.662Z,18.7
2023-01-19T18:27:01.338Z,18.8
2023-01-19T18:32:01.407Z,18.3
2023-01-19T18:37:01.468Z,18.6
2023-01-19T18:42:01.315Z,18.8
2023-01-19T18:47:01.340Z,18.9
2023-01-19T18:52:01.360Z,18.7
2023-01-19T18:57:01.474Z,18.1
2023-01-19T19:02:01.665Z,19.3
2023-01-19T19:07:01.281Z,20.3
2023-01-19T19:12:01.349Z,21.3
2023-01-19T19:22:01.487Z,22.8
2023-01-19T19:27:01.303Z,21.5
2023-01-19T19:32:01.302Z,20.5
2023-01-19T19:37:01.795Z,19.8
2023-01-19T19:42:01.440Z,20.2
2023-01-19T19:47:01.329Z,20.2
2023-01-19T19:52:01.285Z,20.9
2023-01-19T19:57:01.298Z,21.7
2023-01-19T20:02:01.616Z,20.7
2023-01-19T20:07:01.358Z,21.7
2023-01-19T20:12:01.326Z,21.8
2023-01-19T20:17:01.280Z,21.9
2023-01-19T20:22:01.626Z,22.0
2023-01-19T20:27:01.374Z,23.5
2023-01-19T20:32:01.283Z,22.0
2023-01-19T20:38:02.258Z,21.6
2023-01-19T20:43:01.337Z,19.6
2023-01-19T20:48:01.410Z,19.1
2023-01-19T20:53:01.391Z,19.6
2023-01-19T20:58:01.546Z,22.5
2023-01-19T21:03:01.281Z,23.5
2023-01-19T21:08:01.289Z,25.0
2023-01-19T21:13:01.280Z,25.8
2023-01-19T21:18:01.430Z,25.4
2023-01-19T21:23:02.485Z,23.7
2023-01-19T21:28:01.267Z,22.2
2023-01-19T21:33:01.290Z,21.8
2023-01-19T21:38:01.483Z,20.4
2023-01-19T21:43:02.011Z,19.7
2023-01-19T21:48:01.277Z,19.1
2023-01-19T21:54:01.484Z,18.6
2023-01-19T21:59:01.269Z,18.0
2023-01-19T22:04:01.512Z,17.9
2023-01-19T22:09:01.331Z,17.9
2023-01-19T22:14:01.495Z,17.8
2023-01-19T22:19:01.407Z,17.6
2023-01-19T22:24:01.485Z,17.8
2023-01-19T22:29:01.457Z,18.0
2023-01-19T22:34:01.418Z,17.5
2023-01-19T22:39:01.284Z,18.5
2023-01-19T22:44:01.334Z,19.5
2023-01-19T22:49:01.290Z,20.1
2023-01-19T22:54:01.649Z,20.3
2023-01-19T22:59:01.271Z,21.2
2023-01-19T23:04:01.279Z,20.8
2023-01-19T23:09:01.306Z,19.9
2023-01-19T23:14:01.441Z,20.3
2023-01-19T23:19:01.536Z,19.1
2023-01-19T23:24:01.400Z,18.9
2023-01-19T23:29:01.412Z,18.2
2023-01-19T23:34:01.433Z,18.5
2023-01-19T23:39:03.722Z,18.4
2023-01-19T23:44:01.724Z,18.8
2023-01-19T23:49:01.378Z,19.2
2023-01-19T23:54:01.475Z,20.0
2023-01-19T23:59:01.336Z,20.7
